TimeCST,TemperatureF,Dew PointF,Humidity,Sea Level PressureIn,VisibilityMPH,Wind Direction,Wind SpeedMPH,Gust SpeedMPH,PrecipitationIn,Events,Conditions,WindDirDegrees,DateUTC
12:53 AM,1.0,-4.0,79,29.82,10.0,South,16.1,-,N/A,,Clear,180,2014-02-15 06:53:00
1:53 AM,3.0,-2.9,76,29.78,10.0,South,15.0,-,N/A,,Mostly Cloudy,170,2014-02-15 07:53:00
2:53 AM,3.9,-0.9,80,29.75,10.0,South,17.3,-,N/A,,Scattered Clouds,180,2014-02-15 08:53:00
3:53 AM,3.9,-0.9,80,29.75,10.0,South,11.5,-,N/A,,Overcast,180,2014-02-15 09:53:00
4:53 AM,5.0,-0.9,76,29.73,10.0,South,12.7,-,N/A,,Overcast,180,2014-02-15 10:53:00
5:53 AM,5.0,-0.0,80,29.73,10.0,South,8.1,-,N/A,,Mostly Cloudy,170,2014-02-15 11:53:00
6:53 AM,3.9,-2.0,76,29.74,10.0,Calm,Calm,-,N/A,,Mostly Cloudy,0,2014-02-15 12:53:00
7:53 AM,1.9,-2.9,80,29.76,10.0,North,3.5,-,N/A,,Mostly Cloudy,10,2014-02-15 13:53:00
8:53 AM,1.9,-2.9,80,29.79,10.0,North,5.8,-,N/A,,Mostly Cloudy,360,2014-02-15 14:53:00
9:18 AM,5.0,-0.4,78,29.73,10.0,North,5.8,-,N/A,,Mostly Cloudy,350,2014-02-15 15:18:00
9:53 AM,7.0,1.0,77,29.82,7.0,North,11.5,-,N/A,,Overcast,350,2014-02-15 15:53:00
10:53 AM,9.0,3.9,80,29.84,4.0,North,16.1,-,0.00,Snow,Light Snow,350,2014-02-15 16:53:00
11:53 AM,10.0,3.9,76,29.89,3.0,North,24.2,-,0.00,Snow,Light Snow,350,2014-02-15 17:53:00
12:39 PM,10.4,3.2,73,29.84,3.0,North,24.2,-,0.00,Snow,Blowing Snow,350,2014-02-15 18:39:00
12:44 PM,10.4,3.2,73,29.84,1.2,North,23.0,-,0.00,Snow,Blowing Snow,350,2014-02-15 18:44:00
12:53 PM,10.0,3.9,76,29.91,2.0,North,24.2,-,0.00,Snow,Blowing Snow,350,2014-02-15 18:53:00
1:53 PM,9.0,3.0,77,29.95,2.0,North,23.0,-,0.00,Snow,Blowing Snow,350,2014-02-15 19:53:00
2:53 PM,9.0,3.0,77,29.99,1.5,North,26.5,33.4,N/A,Snow,Blowing Snow,350,2014-02-15 20:53:00
3:53 PM,7.0,1.9,80,30.04,1.0,North,25.3,29.9,N/A,Snow,Blowing Snow,350,2014-02-15 21:53:00
4:53 PM,5.0,1.0,84,30.10,1.5,NNW,20.7,28.8,N/A,Snow,Blowing Snow,340,2014-02-15 22:53:00
5:31 PM,5.0,-0.4,78,30.05,5.0,NNW,23.0,-,N/A,,Haze,340,2014-02-15 23:31:00
5:53 PM,3.9,-0.9,80,30.14,10.0,NNW,13.8,-,N/A,,Clear,340,2014-02-15 23:53:00
6:53 PM,3.0,-2.9,76,30.16,10.0,NNW,17.3,-,0.01,,Clear,340,2014-02-16 00:53:00
7:53 PM,-0.0,-5.1,79,30.19,10.0,NNW,12.7,-,N/A,,Clear,340,2014-02-16 01:53:00
8:53 PM,-0.9,-7.1,75,30.21,10.0,NNW,10.4,-,N/A,,Clear,330,2014-02-16 02:53:00
9:53 PM,-4.0,-9.0,79,30.23,10.0,NW,8.1,-,N/A,,Clear,320,2014-02-16 03:53:00
10:53 PM,-5.1,-9.9,80,30.23,10.0,NW,6.9,-,N/A,,Partly Cloudy,310,2014-02-16 04:53:00
11:53 PM,-5.1,-9.9,80,30.20,10.0,NNE,4.6,-,N/A,,Clear,30,2014-02-16 05:53:00